ADDS METAR Data INFO
IDs: Format: Raw Decoded Include TAF

Data at: 2047 UTC 24 Jun 2018

KPTN 241956Z AUTO 19009KT 10SM SCT032 32/25 A3001 RMK AO2 SLP162 T03170250 PNO $
KPTN 241856Z AUTO 19005KT 10SM FEW032 32/26 A3001 RMK AO2 SLP163 T03220256 PNO $
KPTN 241756Z AUTO 21011KT 10SM SCT030 BKN035 BKN049 32/26 A3003 RMK AO2 SLP170 6//// T03170256 10317 20272 51011 PNO $
KPTN 241718Z AUTO 20009KT 10SM SCT030 SCT041 32/26 A3003 RMK AO2 PNO $
KPTN 241656Z AUTO 20009KT 10SM BKN028 BKN038 31/26 A3003 RMK AO2 SLP169 T03110256 PNO $
KPTN 241620Z AUTO 21012KT 10SM FEW026 SCT037 31/26 A3002 RMK AO2 PNO $
KPTN 241556Z AUTO 21009KT 10SM BKN026 BKN030 31/26 A3002 RMK AO2 SLP166 T03060256 PNO $
KPTN 241543Z AUTO 21007KT 10SM BKN024 BKN029 OVC034 31/26 A3002 RMK AO2 PNO $
KPTN 241456Z AUTO 20009KT 10SM CLR 30/26 A3000 RMK AO2 SLP159 6//// T03000261 53008 PNO $
KPTN 241356Z AUTO 21008KT 10SM FEW025 29/26 A2999 RMK AO2 SLP156 T02940256 PNO $
KPTN 241256Z AUTO 20004KT 10SM SCT021 29/26 A2998 RMK AO2 SLP152 T02890261 PNO $
KPTN 241156Z AUTO 20004KT 10SM FEW019 27/25 A2997 RMK AO2 SLP150 6//// 7//// T02720250 10272 20261 51006 PNO $
KPTN 241056Z AUTO 20007KT 10SM CLR 27/25 A2997 RMK AO2 SLP150 T02670250 PNO $
KPTN 240956Z AUTO 19005KT 10SM CLR 27/25 A2996 RMK AO2 SLP147 T02670250 PNO $
KPTN 240856Z AUTO 20007KT 10SM CLR 27/26 A2996 RMK AO2 SLP144 6//// T02670256 53006 PNO $
KPTN 240756Z AUTO 18006KT 10SM FEW020 27/26 A2994 RMK AO2 SLP139 T02670256 PNO $
KPTN 240656Z AUTO 16004KT 10SM FEW018 26/26 A2994 RMK AO2 SLP140 T02610256 PNO $
KPTN 240556Z AUTO 16005KT 10SM FEW024 26/26 A2994 RMK AO2 SLP139 6//// T02610256 10294 20256 403170244 58000 PNO $
KPTN 240456Z AUTO 15004KT 10SM CLR 26/25 A2995 RMK AO2 SLP143 T02560250 PNO $
KPTN 240356Z AUTO 18004KT 10SM CLR 26/25 A2995 RMK AO2 SLP144 T02560250 PNO $
KPTN 240256Z AUTO 15004KT 10SM CLR 26/25 A2994 RMK AO2 SLP139 6//// T02610250 53014 PNO $
KPTN 240156Z AUTO 18004KT 10SM CLR 27/25 A2992 RMK AO2 SLP131 T02670250 PNO $
KPTN 240056Z AUTO 19006KT 10SM CLR 28/25 A2989 RMK AO2 SLP124 T02780250 PNO $
KPTN 232356Z AUTO 20006KT 10SM CLR 29/25 A2990 RMK AO2 SLP125 6//// T02940250 10317 20289 56011 PNO $
KPTN 232256Z AUTO 21012KT 10SM SCT027 31/25 A2990 RMK AO2 SLP127 T03060250 PNO $
KPTN 232242Z AUTO 21010KT 10SM BKN027 31/26 A2990 RMK AO2 PNO $
KPTN 232156Z AUTO 22009KT 10SM CLR 32/25 A2992 RMK AO2 SLP131 T03170250 PNO $
KPTN 232056Z AUTO 18008KT 10SM CLR 32/26 A2993 RMK AO2 SLP136 6//// T03170256 58016 PNO $
KPTN 231956Z AUTO 21009KT 10SM CLR 32/25 A2995 RMK AO2 SLP142 T03170250 PNO $
KPTN 231856Z AUTO 24009KT 10SM SCT031 BKN039 BKN049 31/24 A2997 RMK AO2 SLP151 T03060244 PNO $
KPTN 231756Z AUTO 20012KT 10SM SCT031 SCT043 SCT050 31/24 A2998 RMK AO2 SLP153 6//// T03110244 10317 20267 50001 PNO $
KPTN 231656Z AUTO 23012KT 10SM FEW029 SCT037 BKN046 31/24 A2998 RMK AO2 SLP154 T03060244 PNO $
KPTN 231556Z AUTO 22014KT 10SM FEW027 31/25 A2998 RMK AO2 SLP151 T03060250 PNO $
KPTN 231456Z AUTO 21011KT 10SM FEW024 SCT031 SCT043 30/25 A2998 RMK AO2 SLP152 6//// T03000250 51008 PNO $
KPTN 231356Z AUTO 21009KT 10SM BKN020 29/26 A2996 RMK AO2 SLP147 T02940256 PNO $
KPTN 231256Z AUTO 20006KT 10SM CLR 28/26 A2996 RMK AO2 SLP144 T02830256 PNO $
KPTN 231156Z AUTO 20005KT 10SM CLR 27/25 A2994 RMK AO2 SLP138 6//// 7//// T02670250 10267 20244 53005 PNO $
KPTN 231056Z AUTO 20006KT 10SM CLR 26/25 A2993 RMK AO2 SLP135 T02560250 PNO $
KPTN 231014Z AUTO 20004KT 10SM FEW022 25/24 A2992 RMK AO2 PNO $
KPTN 230956Z AUTO 00000KT 10SM BKN020 24/24 A2992 RMK AO2 SLP133 T02440239 PNO $
KPTN 230954Z AUTO 00000KT 10SM BKN020 24/24 A2992 RMK AO2 PNO $
KPTN 230856Z AUTO 22004KT 10SM CLR 25/24 A2991 RMK AO2 SLP129 6//// T02500244 53001 PNO $